Time;durP1;ratioP1;P1;durP2;ratioP2;P2;SDS_P1;SDS_P2;PMS_P1;PMS_P2;Temp;Humidity;BMP_temperature;BMP_pressure;BME280_temperature;BME280_humidity;BME280_pressure;Samples;Min_cycle;Max_cycle;Signal;HPM_P1;HPM_P2
2023/11/17 00:00:19;;;;;;;1.23;1.02;;;3.40;99.90;;;;;;5027571;28;20029;-79
2023/11/17 00:02:44;;;;;;;1.90;1.00;;;3.40;99.90;;;;;;5012135;28;20032;-79
2023/11/17 00:05:10;;;;;;;1.33;1.10;;;3.50;99.90;;;;;;5028510;28;20105;-79
2023/11/17 00:07:36;;;;;;;1.00;0.90;;;3.50;99.90;;;;;;5030390;28;20049;-79
2023/11/17 00:10:03;;;;;;;2.90;0.82;;;3.50;99.90;;;;;;5024333;28;20502;-79
2023/11/17 00:12:29;;;;;;;1.50;0.95;;;3.40;99.90;;;;;;5011488;28;20381;-79
2023/11/17 00:14:54;;;;;;;1.10;1.00;;;3.40;99.90;;;;;;5032453;28;20022;-78
2023/11/17 00:17:20;;;;;;;1.35;0.98;;;3.40;99.90;;;;;;5012855;28;20017;-79
2023/11/17 00:19:46;;;;;;;1.52;0.85;;;3.40;99.90;;;;;;5011676;28;20522;-80
2023/11/17 00:22:13;;;;;;;1.30;1.20;;;3.40;99.90;;;;;;5015211;28;20029;-80
2023/11/17 00:24:39;;;;;;;1.08;1.00;;;3.40;99.90;;;;;;5004417;28;20477;-78
2023/11/17 00:27:05;;;;;;;1.05;0.95;;;3.40;99.90;;;;;;5027340;28;20022;-79
2023/11/17 00:29:31;;;;;;;1.63;1.00;;;3.40;99.90;;;;;;5012695;28;20033;-79
2023/11/17 00:31:56;;;;;;;2.15;1.20;;;3.40;99.90;;;;;;5024390;28;20032;-78
2023/11/17 00:34:22;;;;;;;2.05;1.60;;;3.40;99.90;;;;;;5021189;28;20026;-80
2023/11/17 00:36:48;;;;;;;1.92;1.20;;;3.40;99.90;;;;;;5009362;28;20041;-79
2023/11/17 00:39:17;;;;;;;2.30;1.48;;;3.40;99.90;;;;;;5029271;28;20033;-79
2023/11/17 00:41:43;;;;;;;1.00;0.90;;;3.40;99.90;;;;;;5001599;28;20021;-80
2023/11/17 00:44:09;;;;;;;1.30;1.20;;;3.40;99.90;;;;;;5033070;28;20018;-79
2023/11/17 00:46:35;;;;;;;2.63;1.25;;;3.40;99.90;;;;;;5009296;28;20037;-80
2023/11/17 00:49:03;;;;;;;1.42;1.10;;;3.40;99.90;;;;;;5011801;28;20036;-78
2023/11/17 00:51:29;;;;;;;2.25;1.10;;;3.40;99.90;;;;;;5024050;28;20022;-80
2023/11/17 00:54:00;;;;;;;1.65;1.13;;;3.40;99.90;;;;;;5010364;28;20021;-79
2023/11/17 00:56:26;;;;;;;1.35;1.00;;;3.40;99.90;;;;;;5012259;28;20512;-80
2023/11/17 00:58:52;;;;;;;1.77;1.50;;;3.40;99.90;;;;;;5012615;28;20105;-78
2023/11/17 01:01:17;;;;;;;1.48;1.20;;;3.40;99.90;;;;;;5005981;28;20921;-79
2023/11/17 01:03:45;;;;;;;2.03;1.30;;;3.40;99.90;;;;;;5027226;28;20010;-80
2023/11/17 01:06:10;;;;;;;1.70;1.10;;;3.40;99.90;;;;;;5009379;28;20117;-80
2023/11/17 01:08:36;;;;;;;1.65;0.98;;;3.40;99.90;;;;;;5011447;28;20101;-79
2023/11/17 01:11:01;;;;;;;1.27;1.02;;;3.40;99.90;;;;;;5028081;28;20029;-79
2023/11/17 01:13:27;;;;;;;1.00;1.00;;;3.40;99.90;;;;;;5009573;28;20033;-80
2023/11/17 01:15:53;;;;;;;1.08;0.98;;;3.40;99.90;;;;;;5013537;28;20107;-81
2023/11/17 01:18:18;;;;;;;1.20;1.05;;;3.40;99.90;;;;;;5031956;28;20065;-79
2023/11/17 01:20:44;;;;;;;2.47;1.15;;;3.40;99.90;;;;;;5022930;28;20029;-79
2023/11/17 01:23:10;;;;;;;1.67;1.17;;;3.40;99.90;;;;;;5026663;28;20662;-78
2023/11/17 01:25:36;;;;;;;1.60;1.30;;;3.40;99.90;;;;;;5008210;28;20025;-79
2023/11/17 01:28:03;;;;;;;1.65;1.05;;;3.40;99.90;;;;;;5004197;28;20437;-79
2023/11/17 01:30:30;;;;;;;3.67;1.10;;;3.40;99.90;;;;;;5006281;28;20029;-79
2023/11/17 01:32:56;;;;;;;1.35;0.90;;;3.40;99.90;;;;;;5023994;28;20022;-79
2023/11/17 01:35:22;;;;;;;6.35;1.30;;;3.40;99.90;;;;;;5025203;28;20033;-79
2023/11/17 01:37:48;;;;;;;1.17;0.98;;;3.40;99.90;;;;;;5030267;28;20504;-79
2023/11/17 01:40:15;;;;;;;1.17;1.00;;;3.40;99.90;;;;;;5029370;28;20025;-78
2023/11/17 01:42:41;;;;;;;1.65;1.00;;;3.40;99.90;;;;;;5029109;28;20540;-78
2023/11/17 01:45:07;;;;;;;1.95;1.02;;;3.40;99.90;;;;;;5011096;28;20030;-79
2023/11/17 01:47:39;;;;;;;0.90;0.77;;;3.50;99.90;;;;;;5001261;28;20116;-78
2023/11/17 01:50:09;;;;;;;1.40;1.23;;;3.50;99.90;;;;;;5011137;28;20110;-78
2023/11/17 01:52:36;;;;;;;0.88;0.85;;;3.50;99.90;;;;;;5008272;28;20032;-78
2023/11/17 01:55:05;;;;;;;1.00;0.82;;;3.50;99.90;;;;;;5008777;28;20044;-79
2023/11/17 01:57:35;;;;;;;1.52;1.20;;;3.50;99.90;;;;;;5011135;28;20037;-79
2023/11/17 02:00:06;;;;;;;1.35;0.88;;;3.50;99.90;;;;;;5021919;28;20029;-79
2023/11/17 02:02:33;;;;;;;2.58;1.27;;;3.40;99.90;;;;;;5009284;28;20600;-78
2023/11/17 02:04:58;;;;;;;0.90;0.90;;;3.50;99.90;;;;;;5026164;28;20028;-78
2023/11/17 02:07:36;;;;;;;1.10;1.00;;;3.40;99.90;;;;;;5006325;28;20034;-78
2023/11/17 02:10:24;;;;;;;1.08;0.98;;;3.50;99.90;;;;;;5025810;28;20013;-79
2023/11/17 02:13:08;;;;;;;1.20;1.00;;;3.50;99.90;;;;;;5022669;28;20037;-78
2023/11/17 02:15:36;;;;;;;6.28;1.20;;;3.50;99.90;;;;;;5009839;28;20024;-79
2023/11/17 02:18:04;;;;;;;0.93;0.80;;;3.50;99.90;;;;;;5006153;28;20469;-80
2023/11/17 02:20:34;;;;;;;1.20;1.10;;;3.50;99.90;;;;;;5023385;28;20044;-79
2023/11/17 02:23:10;;;;;;;1.48;1.05;;;3.50;99.90;;;;;;5006408;28;20021;-78
2023/11/17 02:25:49;;;;;;;1.13;1.00;;;3.50;99.90;;;;;;5002657;28;20044;-78
2023/11/17 02:28:58;;;;;;;1.25;1.00;;;3.40;99.90;;;;;;5027047;28;20032;-80
2023/11/17 02:31:29;;;;;;;1.38;1.20;;;3.40;99.90;;;;;;4981817;28;20026;-79
2023/11/17 02:33:57;;;;;;;3.40;1.33;;;3.40;99.90;;;;;;5004669;28;20390;-79
2023/11/17 02:36:26;;;;;;;1.90;1.52;;;3.40;99.90;;;;;;5027193;28;20020;-79
2023/11/17 02:39:25;;;;;;;1.27;0.90;;;3.40;99.90;;;;;;5009201;28;20600;-78
2023/11/17 02:41:58;;;;;;;1.50;1.20;;;3.50;99.90;;;;;;5004291;28;20500;-78
2023/11/17 02:44:28;;;;;;;1.52;1.40;;;3.40;99.90;;;;;;5007749;28;20121;-82
2023/11/17 02:46:58;;;;;;;3.63;1.58;;;3.50;99.90;;;;;;5024616;28;20179;-78
2023/11/17 02:49:38;;;;;;;1.40;1.30;;;3.50;99.90;;;;;;5010858;28;20025;-79
2023/11/17 02:52:09;;;;;;;1.10;0.90;;;3.50;99.90;;;;;;5028868;28;20018;-78
2023/11/17 02:54:35;;;;;;;1.70;1.13;;;3.50;99.90;;;;;;5031880;28;21318;-81
2023/11/17 02:57:02;;;;;;;1.23;1.13;;;3.40;99.90;;;;;;5014663;28;20025;-81
2023/11/17 02:59:34;;;;;;;2.28;1.20;;;3.50;99.90;;;;;;5031440;28;20049;-80
2023/11/17 03:02:02;;;;;;;1.65;1.40;;;3.50;99.90;;;;;;5018251;28;20029;-79
2023/11/17 03:04:28;;;;;;;1.30;1.20;;;3.40;99.90;;;;;;5014383;28;20076;-80
2023/11/17 03:06:53;;;;;;;3.35;1.55;;;3.40;99.90;;;;;;5012408;28;20021;-80
2023/11/17 03:09:23;;;;;;;2.22;1.35;;;3.40;99.90;;;;;;5013215;28;20116;-79
2023/11/17 03:11:53;;;;;;;1.83;1.38;;;3.50;99.90;;;;;;5030689;28;20034;-79
2023/11/17 03:14:19;;;;;;;1.73;1.20;;;3.40;99.90;;;;;;5007728;28;20446;-79
2023/11/17 03:16:49;;;;;;;2.28;1.60;;;3.40;99.90;;;;;;5010372;28;20041;-80
2023/11/17 03:19:15;;;;;;;1.42;1.20;;;3.50;99.90;;;;;;5009203;28;20286;-80
2023/11/17 03:21:41;;;;;;;2.53;1.20;;;3.50;99.90;;;;;;5013030;28;20033;-79
2023/11/17 03:24:17;;;;;;;1.38;1.23;;;3.50;99.90;;;;;;5031086;28;20033;-79
2023/11/17 03:26:43;;;;;;;1.20;1.10;;;3.50;99.90;;;;;;5010860;28;20069;-81
2023/11/17 03:29:11;;;;;;;1.73;1.33;;;3.40;99.90;;;;;;5011435;28;20353;-80
2023/11/17 03:31:37;;;;;;;2.10;1.55;;;3.50;99.90;;;;;;5013243;28;20045;-79
2023/11/17 03:34:03;;;;;;;2.08;1.30;;;3.50;99.90;;;;;;5030307;28;20485;-79
2023/11/17 03:36:28;;;;;;;1.50;1.40;;;3.50;99.90;;;;;;5012357;28;20071;-79
2023/11/17 03:38:56;;;;;;;1.60;1.50;;;3.50;99.90;;;;;;5030164;28;20116;-79
2023/11/17 03:41:22;;;;;;;1.95;1.48;;;3.50;99.90;;;;;;5011582;28;20040;-79
2023/11/17 03:43:49;;;;;;;2.83;1.25;;;3.50;99.90;;;;;;5011710;28;20499;-79
2023/11/17 03:46:14;;;;;;;1.52;1.40;;;3.50;99.90;;;;;;5031073;28;20112;-79
2023/11/17 03:48:40;;;;;;;1.55;1.23;;;3.50;99.90;;;;;;5031858;28;20086;-78
2023/11/17 03:51:06;;;;;;;2.00;1.48;;;3.50;99.90;;;;;;5015886;28;20028;-79
2023/11/17 03:53:35;;;;;;;1.88;1.42;;;3.50;99.90;;;;;;5017363;28;20028;-79
2023/11/17 03:56:01;;;;;;;1.65;1.40;;;3.50;99.90;;;;;;5013180;28;20029;-79
2023/11/17 03:58:27;;;;;;;1.45;1.30;;;3.50;99.90;;;;;;5014391;28;20116;-79
2023/11/17 04:00:53;;;;;;;1.95;1.45;;;3.40;99.90;;;;;;5014381;28;20061;-80
2023/11/17 04:03:19;;;;;;;1.50;1.40;;;3.50;99.90;;;;;;5014007;28;20109;-79
2023/11/17 04:05:45;;;;;;;1.98;1.40;;;3.40;99.90;;;;;;5014157;28;20528;-79
2023/11/17 04:08:16;;;;;;;1.50;1.13;;;3.50;99.90;;;;;;5025943;28;20049;-80
2023/11/17 04:10:45;;;;;;;3.10;1.42;;;3.50;99.90;;;;;;5010109;28;20036;-80
2023/11/17 04:13:11;;;;;;;1.55;1.10;;;3.50;99.90;;;;;;5008009;28;20052;-81
2023/11/17 04:15:37;;;;;;;1.90;1.40;;;3.40;99.90;;;;;;5014141;28;20604;-80
2023/11/17 04:18:03;;;;;;;1.75;1.40;;;3.40;99.90;;;;;;5008293;28;20037;-79
2023/11/17 04:20:29;;;;;;;1.67;1.50;;;3.40;99.90;;;;;;5010069;28;20655;-79
2023/11/17 04:22:55;;;;;;;2.08;1.27;;;3.40;99.90;;;;;;5024993;28;20033;-79
2023/11/17 04:25:22;;;;;;;1.77;1.50;;;3.40;99.90;;;;;;5016798;28;20486;-80
2023/11/17 04:27:48;;;;;;;2.55;1.60;;;3.40;99.90;;;;;;5027930;28;20052;-79
2023/11/17 04:30:13;;;;;;;2.10;1.52;;;3.50;99.90;;;;;;5014794;28;20026;-81
2023/11/17 04:32:39;;;;;;;2.40;1.70;;;3.40;99.90;;;;;;5013550;28;20025;-80
2023/11/17 04:35:06;;;;;;;2.30;1.48;;;3.40;99.90;;;;;;5029030;28;20029;-80
2023/11/17 04:37:31;;;;;;;1.50;1.40;;;3.40;99.90;;;;;;5009766;28;20473;-80
2023/11/17 04:39:57;;;;;;;1.80;1.63;;;3.40;99.90;;;;;;5006057;28;20037;-81
2023/11/17 04:42:22;;;;;;;1.95;1.65;;;3.40;99.90;;;;;;5009132;28;20469;-81
2023/11/17 04:44:48;;;;;;;2.08;1.63;;;3.40;99.90;;;;;;5017184;28;20038;-81
2023/11/17 04:47:14;;;;;;;1.40;1.30;;;3.40;99.90;;;;;;5017456;28;20465;-81
2023/11/17 04:49:40;;;;;;;3.25;1.73;;;3.40;99.90;;;;;;5014882;28;20044;-81
2023/11/17 04:52:06;;;;;;;4.32;1.55;;;3.40;99.90;;;;;;5018279;28;20014;-80
2023/11/17 04:54:31;;;;;;;1.58;1.40;;;3.40;99.90;;;;;;5019786;28;20052;-80
2023/11/17 04:56:57;;;;;;;1.58;1.42;;;3.40;99.90;;;;;;5012564;28;20052;-81
2023/11/17 04:59:22;;;;;;;2.42;1.85;;;3.40;99.90;;;;;;5009509;28;20037;-78
2023/11/17 05:01:48;;;;;;;2.17;1.67;;;3.40;99.90;;;;;;5028509;28;20701;-79
2023/11/17 05:04:13;;;;;;;3.42;1.45;;;3.40;99.90;;;;;;5011065;28;20032;-79
2023/11/17 05:06:39;;;;;;;3.75;2.10;;;3.40;99.90;;;;;;5010944;28;20033;-79
2023/11/17 05:09:12;;;;;;;1.70;1.48;;;3.40;99.90;;;;;;5030202;28;20053;-79
2023/11/17 05:11:41;;;;;;;2.55;2.08;;;3.40;99.90;;;;;;5013565;28;20025;-80
2023/11/17 05:14:07;;;;;;;2.30;1.80;;;3.40;99.90;;;;;;5010960;28;20021;-80
2023/11/17 05:16:37;;;;;;;3.35;2.13;;;3.40;99.90;;;;;;5031006;28;20140;-80
2023/11/17 05:19:06;;;;;;;3.67;1.80;;;3.40;99.90;;;;;;5007091;28;20116;-79
2023/11/17 05:21:32;;;;;;;2.25;1.83;;;3.40;99.90;;;;;;5010440;28;20076;-79
2023/11/17 05:23:58;;;;;;;3.03;1.77;;;3.40;99.90;;;;;;5004564;28;20033;-80
2023/11/17 05:26:25;;;;;;;2.65;1.65;;;3.40;99.90;;;;;;5025820;28;20025;-80
2023/11/17 05:28:50;;;;;;;1.95;1.60;;;3.40;99.90;;;;;;5002380;28;20029;-80
2023/11/17 05:31:18;;;;;;;3.08;1.55;;;3.40;99.90;;;;;;5023037;28;20112;-80
2023/11/17 05:33:43;;;;;;;2.20;1.75;;;3.40;99.90;;;;;;5007514;28;20028;-79
2023/11/17 05:36:09;;;;;;;2.50;1.60;;;3.40;99.90;;;;;;5013149;28;20013;-79
2023/11/17 05:38:35;;;;;;;2.03;1.45;;;3.40;99.90;;;;;;5030695;28;20297;-79
2023/11/17 05:41:02;;;;;;;3.75;1.98;;;3.40;99.90;;;;;;5009683;28;20084;-79
2023/11/17 05:43:28;;;;;;;1.70;1.60;;;3.30;99.90;;;;;;5031031;28;20060;-79
2023/11/17 05:45:55;;;;;;;3.03;1.92;;;3.40;99.90;;;;;;5012002;28;20491;-79
2023/11/17 05:48:21;;;;;;;3.75;3.17;;;3.40;99.90;;;;;;5011339;28;20064;-80
2023/11/17 05:50:46;;;;;;;2.28;1.83;;;3.40;99.90;;;;;;5004962;28;20046;-79
2023/11/17 05:53:12;;;;;;;3.83;1.77;;;3.40;99.90;;;;;;5010963;28;20108;-79
2023/11/17 05:55:38;;;;;;;2.42;1.60;;;3.40;99.90;;;;;;5009575;28;20025;-79
2023/11/17 05:58:04;;;;;;;2.35;2.13;;;3.40;99.90;;;;;;5011527;28;20030;-80
2023/11/17 06:00:31;;;;;;;2.20;1.48;;;3.40;99.90;;;;;;5010748;28;20029;-81
2023/11/17 06:02:56;;;;;;;1.80;1.30;;;3.40;99.90;;;;;;5007714;28;20029;-79
2023/11/17 06:05:22;;;;;;;2.47;1.52;;;3.40;99.90;;;;;;5010643;28;20460;-79
2023/11/17 06:07:48;;;;;;;2.92;1.50;;;3.40;99.90;;;;;;5030018;28;20568;-80
2023/11/17 06:10:14;;;;;;;1.90;1.60;;;3.30;99.90;;;;;;5028960;28;20112;-81
2023/11/17 06:12:40;;;;;;;1.80;1.55;;;3.30;99.90;;;;;;5028543;28;20033;-79
2023/11/17 06:15:06;;;;;;;2.75;1.70;;;3.30;99.90;;;;;;5010525;28;20025;-79
2023/11/17 06:17:31;;;;;;;2.63;1.73;;;3.30;99.90;;;;;;5011254;28;20022;-79
2023/11/17 06:20:00;;;;;;;2.47;1.98;;;3.30;99.90;;;;;;5013199;28;20053;-79
2023/11/17 06:22:27;;;;;;;1.65;1.55;;;3.30;99.90;;;;;;5010173;28;20032;-80
2023/11/17 06:24:53;;;;;;;1.92;1.70;;;3.30;99.90;;;;;;5008960;28;20021;-80
2023/11/17 06:27:19;;;;;;;2.42;1.55;;;3.40;99.90;;;;;;5032934;28;20028;-80
2023/11/17 06:29:45;;;;;;;1.85;1.67;;;3.30;99.90;;;;;;5009660;28;20026;-78
2023/11/17 06:32:11;;;;;;;3.63;1.83;;;3.30;99.90;;;;;;5014183;28;20108;-81
2023/11/17 06:34:38;;;;;;;2.13;1.83;;;3.30;99.90;;;;;;5018135;28;20048;-80
2023/11/17 06:37:05;;;;;;;2.13;1.80;;;3.30;99.90;;;;;;5034896;28;20021;-80
2023/11/17 06:39:30;;;;;;;2.58;1.48;;;3.30;99.90;;;;;;5017624;28;20095;-80
2023/11/17 06:41:56;;;;;;;2.92;2.03;;;3.30;99.90;;;;;;5017196;28;20021;-82
2023/11/17 06:44:22;;;;;;;2.15;1.90;;;3.30;99.90;;;;;;5018472;28;20033;-79
2023/11/17 06:46:49;;;;;;;2.75;2.05;;;3.30;99.90;;;;;;5010356;28;20119;-80
2023/11/17 06:49:18;;;;;;;2.92;1.70;;;3.30;99.90;;;;;;5008450;28;20084;-79
2023/11/17 06:51:45;;;;;;;2.70;2.08;;;3.30;99.90;;;;;;5028146;28;20021;-80
2023/11/17 06:54:13;;;;;;;2.25;1.70;;;3.30;99.90;;;;;;5012263;28;20025;-82
2023/11/17 06:56:40;;;;;;;2.70;2.08;;;3.30;99.90;;;;;;5013014;28;20087;-80
2023/11/17 06:59:17;;;;;;;4.07;2.22;;;3.30;99.90;;;;;;5030255;28;20033;-80
2023/11/17 07:01:44;;;;;;;2.70;2.10;;;3.30;99.90;;;;;;5010594;28;20036;-79
2023/11/17 07:04:13;;;;;;;3.00;1.98;;;3.30;99.90;;;;;;5027484;28;20053;-80
2023/11/17 07:06:42;;;;;;;2.50;1.83;;;3.30;99.90;;;;;;5009990;28;20133;-80
2023/11/17 07:09:19;;;;;;;3.60;2.38;;;3.30;99.90;;;;;;5009651;28;20018;-79
2023/11/17 07:11:46;;;;;;;3.45;2.10;;;3.30;99.90;;;;;;5006211;28;20025;-79
2023/11/17 07:14:13;;;;;;;3.38;1.80;;;3.30;99.90;;;;;;5008174;28;20038;-79
2023/11/17 07:16:41;;;;;;;2.85;1.95;;;3.30;99.90;;;;;;5029109;28;20481;-79
2023/11/17 07:19:08;;;;;;;3.13;1.98;;;3.30;99.90;;;;;;5009552;28;20151;-80
2023/11/17 07:21:35;;;;;;;3.65;1.98;;;3.30;99.90;;;;;;5008450;28;20021;-79
2023/11/17 07:24:02;;;;;;;2.78;1.83;;;3.30;99.90;;;;;;5023714;28;20018;-79
2023/11/17 07:26:30;;;;;;;3.70;1.80;;;3.30;99.90;;;;;;5027292;28;20505;-79
2023/11/17 07:28:55;;;;;;;2.42;1.92;;;3.30;99.90;;;;;;5028390;28;20079;-80
2023/11/17 07:31:21;;;;;;;2.15;1.83;;;3.30;99.90;;;;;;5010704;28;20025;-79
2023/11/17 07:33:47;;;;;;;2.17;1.80;;;3.30;99.90;;;;;;5008483;28;20410;-80
2023/11/17 07:36:15;;;;;;;2.60;2.25;;;3.30;99.90;;;;;;5028192;28;20107;-79
2023/11/17 07:38:42;;;;;;;4.32;2.40;;;3.30;99.90;;;;;;5010268;28;20389;-79
2023/11/17 07:41:08;;;;;;;2.03;1.75;;;3.30;99.90;;;;;;5027252;28;20533;-80
2023/11/17 07:43:36;;;;;;;3.13;2.20;;;3.30;99.90;;;;;;5013320;28;20082;-79
2023/11/17 07:46:02;;;;;;;3.05;2.00;;;3.30;99.90;;;;;;5032229;28;20022;-79
2023/11/17 07:48:28;;;;;;;2.60;2.13;;;3.30;99.90;;;;;;5018783;28;20022;-79
2023/11/17 07:50:53;;;;;;;2.40;1.95;;;3.30;99.90;;;;;;5014064;28;20105;-79
2023/11/17 07:53:20;;;;;;;2.53;2.10;;;3.20;99.90;;;;;;5014516;28;20460;-79
2023/11/17 07:55:46;;;;;;;1.90;1.70;;;3.20;99.90;;;;;;5014726;28;20099;-80
2023/11/17 07:58:11;;;;;;;2.08;1.67;;;3.30;99.90;;;;;;5014130;28;20477;-80
2023/11/17 08:00:37;;;;;;;2.17;1.70;;;3.30;99.90;;;;;;5030536;28;20036;-81
2023/11/17 08:03:04;;;;;;;3.25;1.70;;;3.30;99.90;;;;;;5012494;28;20018;-81
2023/11/17 08:05:30;;;;;;;2.17;1.67;;;3.30;99.90;;;;;;5013864;28;20056;-79
2023/11/17 08:07:56;;;;;;;3.25;1.80;;;3.20;99.90;;;;;;5016212;28;20017;-80
2023/11/17 08:10:22;;;;;;;4.03;2.50;;;3.30;99.90;;;;;;5013956;28;20029;-81
2023/11/17 08:12:48;;;;;;;1.85;1.67;;;3.30;99.90;;;;;;5018958;28;20017;-81
2023/11/17 08:15:14;;;;;;;3.10;1.70;;;3.30;99.90;;;;;;5016104;28;20021;-80
2023/11/17 08:17:39;;;;;;;2.30;1.90;;;3.40;99.90;;;;;;5022956;28;20017;-82
2023/11/17 08:20:10;;;;;;;4.90;2.00;;;3.40;99.90;;;;;;5007378;28;20025;-79
2023/11/17 08:22:36;;;;;;;3.65;2.22;;;3.40;99.90;;;;;;5034641;28;20041;-80
2023/11/17 08:25:03;;;;;;;2.78;2.35;;;3.40;99.90;;;;;;5017024;28;20025;-79
2023/11/17 08:27:28;;;;;;;2.65;2.42;;;3.40;99.90;;;;;;5017152;28;20033;-81
2023/11/17 08:29:54;;;;;;;3.22;2.05;;;3.40;99.90;;;;;;5020615;28;20063;-79
2023/11/17 08:32:20;;;;;;;4.63;2.00;;;3.40;99.90;;;;;;5022908;28;20013;-79
2023/11/17 08:34:46;;;;;;;2.13;1.83;;;3.40;99.90;;;;;;5042878;28;20045;-81
2023/11/17 08:37:13;;;;;;;2.75;2.22;;;3.50;99.90;;;;;;5018970;28;20468;-79
2023/11/17 08:39:39;;;;;;;2.35;1.90;;;3.40;99.90;;;;;;5018667;28;20029;-79
2023/11/17 08:42:04;;;;;;;1.80;1.42;;;3.50;99.90;;;;;;5015704;28;20438;-80
2023/11/17 08:44:30;;;;;;;5.47;1.70;;;3.40;99.90;;;;;;5021031;28;20040;-80
2023/11/17 08:46:57;;;;;;;2.05;1.55;;;3.40;99.90;;;;;;5037822;28;20056;-79
2023/11/17 08:49:22;;;;;;;1.58;1.48;;;3.40;99.90;;;;;;5032544;28;20181;-80
2023/11/17 08:51:48;;;;;;;2.50;1.65;;;3.40;99.90;;;;;;5018374;28;20505;-79
2023/11/17 08:54:14;;;;;;;3.65;1.80;;;3.50;99.90;;;;;;5018890;28;20029;-80
2023/11/17 08:56:41;;;;;;;4.00;2.00;;;3.50;99.90;;;;;;5015896;28;20048;-79
2023/11/17 08:59:07;;;;;;;2.38;1.83;;;3.50;99.90;;;;;;5039486;28;20018;-80
2023/11/17 09:01:32;;;;;;;2.10;1.80;;;3.40;99.90;;;;;;5037991;28;20382;-80
2023/11/17 09:03:58;;;;;;;2.63;1.70;;;3.50;99.90;;;;;;5020082;28;20100;-80
2023/11/17 09:06:24;;;;;;;2.05;1.48;;;3.50;99.90;;;;;;5038610;28;20037;-79
2023/11/17 09:08:50;;;;;;;2.20;1.42;;;3.60;99.90;;;;;;5018595;28;20049;-81
2023/11/17 09:11:16;;;;;;;2.72;1.20;;;3.60;99.90;;;;;;5017852;28;21156;-79
2023/11/17 09:13:42;;;;;;;4.57;1.92;;;3.70;99.90;;;;;;5036946;28;20029;-80
2023/11/17 09:16:08;;;;;;;3.03;1.88;;;3.70;99.90;;;;;;5015794;28;20033;-80
2023/11/17 09:18:35;;;;;;;2.45;2.00;;;3.70;99.90;;;;;;5021121;28;20476;-81
2023/11/17 09:21:05;;;;;;;2.85;2.30;;;3.80;99.90;;;;;;5018770;28;20065;-82
2023/11/17 09:23:34;;;;;;;3.78;1.40;;;3.80;99.90;;;;;;5022387;28;20025;-80
2023/11/17 09:26:03;;;;;;;1.80;1.70;;;3.80;99.90;;;;;;5020420;28;20105;-80
2023/11/17 09:28:29;;;;;;;2.17;1.98;;;3.80;99.90;;;;;;5038207;28;20034;-82
2023/11/17 09:30:56;;;;;;;1.80;1.65;;;3.90;99.90;;;;;;5019921;28;20052;-81
2023/11/17 09:33:22;;;;;;;2.03;1.83;;;3.90;99.90;;;;;;5038069;28;20025;-81
2023/11/17 09:35:51;;;;;;;3.25;1.70;;;3.90;99.90;;;;;;5022471;28;20068;-80
2023/11/17 09:38:17;;;;;;;1.88;1.27;;;3.90;99.90;;;;;;5039794;28;20034;-80
2023/11/17 09:40:44;;;;;;;1.63;1.27;;;3.90;99.90;;;;;;5041329;28;20040;-79
2023/11/17 09:43:23;;;;;;;2.30;1.75;;;4.00;99.90;;;;;;5040225;28;20026;-80
2023/11/17 09:45:53;;;;;;;1.30;1.20;;;4.00;99.90;;;;;;5036847;28;20037;-82
2023/11/17 09:48:20;;;;;;;1.65;1.30;;;4.00;99.90;;;;;;5037748;28;20036;-81
2023/11/17 09:50:50;;;;;;;3.42;1.75;;;4.00;99.90;;;;;;5022099;28;20026;-81
2023/11/17 09:53:17;;;;;;;4.05;1.67;;;4.00;99.90;;;;;;5041512;28;20032;-81
2023/11/17 09:55:44;;;;;;;2.63;1.30;;;4.10;99.90;;;;;;5039947;28;20041;-80
2023/11/17 09:58:12;;;;;;;1.23;1.13;;;4.10;99.90;;;;;;5041136;28;20041;-80
2023/11/17 10:00:41;;;;;;;1.65;1.20;;;4.10;99.90;;;;;;5023250;28;20032;-80
2023/11/17 10:03:08;;;;;;;1.67;1.10;;;4.10;99.90;;;;;;5042037;28;20025;-79
2023/11/17 10:05:36;;;;;;;1.10;1.00;;;4.10;99.90;;;;;;5021945;28;20029;-81
2023/11/17 10:08:11;;;;;;;1.23;1.10;;;4.10;99.90;;;;;;5023487;28;20089;-80
2023/11/17 10:10:38;;;;;;;1.08;0.93;;;4.20;99.90;;;;;;5025827;28;20022;-80
2023/11/17 10:13:11;;;;;;;1.30;1.15;;;4.20;99.90;;;;;;5015148;28;20051;-81
2023/11/17 10:15:41;;;;;;;1.15;0.90;;;4.20;99.90;;;;;;5020110;28;20070;-80
2023/11/17 10:18:08;;;;;;;2.47;1.30;;;4.30;99.90;;;;;;5034423;28;20684;-79
2023/11/17 10:20:36;;;;;;;2.33;1.35;;;4.30;99.90;;;;;;5011366;28;20042;-81
2023/11/17 10:23:02;;;;;;;1.80;1.00;;;4.40;99.90;;;;;;5013447;28;20053;-81
2023/11/17 10:25:29;;;;;;;1.27;1.17;;;4.40;99.90;;;;;;5033604;28;20057;-80
2023/11/17 10:27:54;;;;;;;0.95;0.85;;;4.50;99.90;;;;;;5018312;28;20041;-80
2023/11/17 10:30:25;;;;;;;1.60;1.00;;;4.50;99.90;;;;;;5014055;28;20089;-80
2023/11/17 10:33:17;;;;;;;1.00;0.90;;;4.60;99.90;;;;;;5011075;28;20026;-80
2023/11/17 10:36:00;;;;;;;1.70;1.35;;;4.60;99.90;;;;;;4991699;28;20094;-80
2023/11/17 10:38:26;;;;;;;5.25;1.65;;;4.60;99.90;;;;;;5026927;28;20048;-80
2023/11/17 10:40:51;;;;;;;1.88;1.30;;;4.60;99.90;;;;;;5008948;28;20216;-81
2023/11/17 10:43:17;;;;;;;1.83;1.23;;;4.60;99.90;;;;;;5010889;28;20026;-80
2023/11/17 10:45:45;;;;;;;2.20;1.20;;;4.50;99.90;;;;;;5011910;28;20034;-81
2023/11/17 10:48:16;;;;;;;2.33;1.20;;;4.50;99.90;;;;;;5010691;28;20037;-79
2023/11/17 10:50:43;;;;;;;1.13;1.02;;;4.50;99.90;;;;;;5031890;28;20164;-79
2023/11/17 10:53:20;;;;;;;1.90;1.50;;;4.60;99.90;;;;;;5030362;28;20078;-81
2023/11/17 10:55:53;;;;;;;2.08;1.70;;;4.60;99.90;;;;;;5032293;28;20052;-80
2023/11/17 10:58:19;;;;;;;1.67;1.38;;;4.70;99.90;;;;;;5026713;28;20092;-79
2023/11/17 11:00:47;;;;;;;3.08;1.40;;;4.70;99.90;;;;;;5006531;28;20029;-82
2023/11/17 11:03:15;;;;;;;1.90;1.48;;;4.70;99.90;;;;;;5012981;28;20474;-80
2023/11/17 11:05:42;;;;;;;2.55;1.52;;;4.80;99.90;;;;;;5011897;28;20437;-80
2023/11/17 11:08:18;;;;;;;2.65;1.40;;;4.80;99.90;;;;;;5010651;28;20029;-80
2023/11/17 11:10:57;;;;;;;3.20;1.30;;;4.80;99.90;;;;;;5030453;28;20025;-79
2023/11/17 11:13:29;;;;;;;1.08;0.98;;;4.80;99.90;;;;;;5008226;28;20030;-79
2023/11/17 11:16:05;;;;;;;2.42;1.58;;;4.80;99.90;;;;;;5009882;28;20474;-80
2023/11/17 11:18:47;;;;;;;1.27;1.17;;;4.90;99.90;;;;;;5033813;28;20036;-81
2023/11/17 11:21:17;;;;;;;1.45;1.13;;;4.80;99.90;;;;;;5010618;28;20029;-79
2023/11/17 11:23:45;;;;;;;2.50;1.52;;;4.80;99.90;;;;;;5030976;28;20124;-80
2023/11/17 11:26:13;;;;;;;1.60;1.38;;;4.80;99.90;;;;;;5013761;28;20029;-79
2023/11/17 11:28:41;;;;;;;2.20;1.33;;;4.80;99.90;;;;;;5014277;28;20036;-80
2023/11/17 11:31:15;;;;;;;2.55;1.45;;;4.90;99.90;;;;;;5031993;28;20021;-79
2023/11/17 11:33:41;;;;;;;5.60;1.85;;;4.90;99.90;;;;;;5014401;28;20026;-79
2023/11/17 11:36:11;;;;;;;1.88;1.20;;;4.90;99.90;;;;;;5015646;28;20446;-80
2023/11/17 11:38:40;;;;;;;1.60;1.50;;;5.00;99.90;;;;;;5016905;28;20033;-79
2023/11/17 11:41:15;;;;;;;1.35;1.23;;;5.00;99.90;;;;;;5015803;28;20508;-80
2023/11/17 11:43:45;;;;;;;1.55;1.10;;;5.00;99.90;;;;;;5015528;28;20030;-79
2023/11/17 11:46:16;;;;;;;2.00;1.10;;;5.10;99.90;;;;;;5035362;28;20034;-80
2023/11/17 11:48:51;;;;;;;1.30;1.20;;;5.10;99.90;;;;;;5011581;28;20509;-80
2023/11/17 11:51:22;;;;;;;1.55;1.10;;;5.10;99.90;;;;;;5015980;28;20103;-80
2023/11/17 11:53:59;;;;;;;2.90;1.10;;;5.20;99.90;;;;;;5034709;28;20014;-81
2023/11/17 11:56:29;;;;;;;1.85;1.20;;;5.20;99.90;;;;;;5032432;28;20029;-80
2023/11/17 11:58:56;;;;;;;2.60;1.85;;;5.20;99.90;;;;;;5042089;28;20033;-80
2023/11/17 12:01:23;;;;;;;1.33;0.95;;;5.20;99.90;;;;;;5039082;28;20056;-80
2023/11/17 12:03:51;;;;;;;1.40;1.08;;;5.20;99.90;;;;;;5024973;28;20485;-81
2023/11/17 12:06:28;;;;;;;1.50;1.05;;;5.20;99.90;;;;;;5018764;28;20040;-81
2023/11/17 12:09:07;;;;;;;1.20;1.10;;;5.30;99.90;;;;;;5037141;28;20048;-81
2023/11/17 12:11:50;;;;;;;1.10;1.00;;;5.30;99.90;;;;;;5039196;28;20033;-80
2023/11/17 12:14:18;;;;;;;1.20;1.10;;;5.30;99.90;;;;;;5021883;28;20295;-81
2023/11/17 12:16:54;;;;;;;1.55;1.20;;;5.40;99.90;;;;;;5023586;28;20021;-80
2023/11/17 12:19:22;;;;;;;2.55;1.45;;;5.40;99.90;;;;;;5040761;28;20045;-81
2023/11/17 12:21:50;;;;;;;1.90;1.58;;;5.50;99.90;;;;;;5042889;28;20087;-82
2023/11/17 12:24:23;;;;;;;1.15;0.93;;;5.50;99.90;;;;;;5037747;28;20033;-79
2023/11/17 12:26:51;;;;;;;2.40;1.10;;;5.50;99.90;;;;;;5017733;28;20139;-80
2023/11/17 12:29:25;;;;;;;1.95;1.02;;;5.50;99.90;;;;;;5015955;28;20112;-80
2023/11/17 12:31:52;;;;;;;1.05;0.85;;;5.50;99.90;;;;;;5016433;28;20053;-80
2023/11/17 12:34:18;;;;;;;1.27;1.08;;;5.40;99.90;;;;;;5017500;28;20025;-80
2023/11/17 12:36:47;;;;;;;1.33;1.10;;;5.50;99.90;;;;;;5032429;28;20033;-79
2023/11/17 12:39:16;;;;;;;1.05;0.95;;;5.40;99.90;;;;;;5017418;28;20059;-79
2023/11/17 12:41:43;;;;;;;1.55;1.00;;;5.50;99.90;;;;;;5014894;28;20050;-79
2023/11/17 12:44:15;;;;;;;1.10;1.00;;;5.50;99.90;;;;;;5016562;28;20030;-81
2023/11/17 12:46:40;;;;;;;1.65;1.10;;;5.50;99.90;;;;;;5018423;28;20033;-81
2023/11/17 12:49:07;;;;;;;1.73;1.27;;;5.50;99.90;;;;;;5034566;28;20470;-80
2023/11/17 12:51:33;;;;;;;1.30;0.95;;;5.40;99.90;;;;;;5015842;28;20029;-80
2023/11/17 12:54:02;;;;;;;1.88;1.42;;;5.40;99.90;;;;;;5032971;28;20055;-82
2023/11/17 12:56:28;;;;;;;1.42;1.25;;;5.40;99.90;;;;;;5017611;28;20021;-79
2023/11/17 12:58:54;;;;;;;1.40;1.30;;;5.30;99.90;;;;;;5035886;28;20048;-81
2023/11/17 13:01:22;;;;;;;2.22;1.55;;;5.30;99.90;;;;;;5015102;28;20029;-80